sensor_id;sensor_type;location;lat;lon;timestamp;P1;durP1;ratioP1;P2;durP2;ratioP2
13311;SDS011;34033;48.672;9.376;2022-10-17T00:00:22;2.83;;;2.13;;
13311;SDS011;34033;48.672;9.376;2022-10-17T00:02:47;2.13;;;2.03;;
13311;SDS011;34033;48.672;9.376;2022-10-17T00:05:13;2.50;;;2.30;;
13311;SDS011;34033;48.672;9.376;2022-10-17T00:07:38;2.50;;;2.33;;
13311;SDS011;34033;48.672;9.376;2022-10-17T00:10:04;2.90;;;2.43;;
13311;SDS011;34033;48.672;9.376;2022-10-17T00:12:31;3.00;;;2.27;;
13311;SDS011;34033;48.672;9.376;2022-10-17T00:14:57;2.57;;;2.30;;
13311;SDS011;34033;48.672;9.376;2022-10-17T00:17:22;5.07;;;2.40;;
13311;SDS011;34033;48.672;9.376;2022-10-17T00:19:48;2.87;;;2.10;;
13311;SDS011;34033;48.672;9.376;2022-10-17T00:22:13;3.07;;;2.13;;
13311;SDS011;34033;48.672;9.376;2022-10-17T00:24:38;2.20;;;2.10;;
13311;SDS011;34033;48.672;9.376;2022-10-17T00:27:04;2.10;;;1.90;;
13311;SDS011;34033;48.672;9.376;2022-10-17T00:29:29;2.63;;;2.00;;
13311;SDS011;34033;48.672;9.376;2022-10-17T00:31:55;5.67;;;2.40;;
13311;SDS011;34033;48.672;9.376;2022-10-17T00:34:21;2.60;;;1.97;;
13311;SDS011;34033;48.672;9.376;2022-10-17T00:36:46;2.20;;;2.10;;
13311;SDS011;34033;48.672;9.376;2022-10-17T00:39:11;1.97;;;1.87;;
13311;SDS011;34033;48.672;9.376;2022-10-17T00:41:37;2.13;;;1.90;;
13311;SDS011;34033;48.672;9.376;2022-10-17T00:44:03;5.33;;;1.80;;
13311;SDS011;34033;48.672;9.376;2022-10-17T00:46:32;1.87;;;1.77;;
13311;SDS011;34033;48.672;9.376;2022-10-17T00:49:02;2.20;;;2.10;;
13311;SDS011;34033;48.672;9.376;2022-10-17T00:51:53;3.23;;;2.10;;
13311;SDS011;34033;48.672;9.376;2022-10-17T00:54:20;2.27;;;2.00;;
13311;SDS011;34033;48.672;9.376;2022-10-17T00:56:49;2.37;;;1.97;;
13311;SDS011;34033;48.672;9.376;2022-10-17T00:59:16;2.43;;;1.90;;
13311;SDS011;34033;48.672;9.376;2022-10-17T01:01:46;2.27;;;2.07;;
13311;SDS011;34033;48.672;9.376;2022-10-17T01:04:18;2.50;;;1.93;;
13311;SDS011;34033;48.672;9.376;2022-10-17T01:06:44;1.97;;;1.77;;
13311;SDS011;34033;48.672;9.376;2022-10-17T01:09:09;5.37;;;2.40;;
13311;SDS011;34033;48.672;9.376;2022-10-17T01:14:12;2.63;;;2.17;;
13311;SDS011;34033;48.672;9.376;2022-10-17T01:25:21;2.13;;;2.03;;
13311;SDS011;34033;48.672;9.376;2022-10-17T01:33:36;2.57;;;2.00;;
13311;SDS011;34033;48.672;9.376;2022-10-17T01:36:17;2.40;;;2.20;;
13311;SDS011;34033;48.672;9.376;2022-10-17T01:39:14;3.87;;;2.10;;
13311;SDS011;34033;48.672;9.376;2022-10-17T01:41:50;2.17;;;1.80;;
13311;SDS011;34033;48.672;9.376;2022-10-17T01:44:25;3.87;;;2.00;;
13311;SDS011;34033;48.672;9.376;2022-10-17T01:47:14;2.30;;;2.00;;
13311;SDS011;34033;48.672;9.376;2022-10-17T01:49:42;2.67;;;1.80;;
13311;SDS011;34033;48.672;9.376;2022-10-17T01:52:11;2.20;;;1.90;;
13311;SDS011;34033;48.672;9.376;2022-10-17T01:54:41;2.00;;;1.90;;
13311;SDS011;34033;48.672;9.376;2022-10-17T01:59:53;1.90;;;1.80;;
13311;SDS011;34033;48.672;9.376;2022-10-17T02:02:20;4.13;;;2.07;;
13311;SDS011;34033;48.672;9.376;2022-10-17T02:04:47;1.93;;;1.80;;
13311;SDS011;34033;48.672;9.376;2022-10-17T02:07:15;4.53;;;1.63;;
13311;SDS011;34033;48.672;9.376;2022-10-17T02:09:41;1.73;;;1.63;;
13311;SDS011;34033;48.672;9.376;2022-10-17T02:15:00;3.00;;;1.90;;
13311;SDS011;34033;48.672;9.376;2022-10-17T02:17:37;2.73;;;2.37;;
13311;SDS011;34033;48.672;9.376;2022-10-17T02:25:41;1.80;;;1.70;;
13311;SDS011;34033;48.672;9.376;2022-10-17T02:34:15;2.00;;;1.90;;
13311;SDS011;34033;48.672;9.376;2022-10-17T02:36:48;2.00;;;1.90;;
13311;SDS011;34033;48.672;9.376;2022-10-17T02:39:21;4.80;;;1.70;;
13311;SDS011;34033;48.672;9.376;2022-10-17T02:41:49;2.93;;;1.77;;
13311;SDS011;34033;48.672;9.376;2022-10-17T02:44:16;4.80;;;2.13;;
13311;SDS011;34033;48.672;9.376;2022-10-17T02:46:42;2.73;;;2.17;;
13311;SDS011;34033;48.672;9.376;2022-10-17T02:49:20;2.27;;;2.07;;
13311;SDS011;34033;48.672;9.376;2022-10-17T02:51:51;2.83;;;1.80;;
13311;SDS011;34033;48.672;9.376;2022-10-17T02:54:36;2.73;;;1.80;;
13311;SDS011;34033;48.672;9.376;2022-10-17T02:59:46;7.20;;;1.80;;
13311;SDS011;34033;48.672;9.376;2022-10-17T03:02:13;3.17;;;1.67;;
13311;SDS011;34033;48.672;9.376;2022-10-17T03:04:41;1.70;;;1.60;;
13311;SDS011;34033;48.672;9.376;2022-10-17T03:07:07;3.00;;;1.73;;
13311;SDS011;34033;48.672;9.376;2022-10-17T03:09:32;2.00;;;1.80;;
13311;SDS011;34033;48.672;9.376;2022-10-17T03:11:57;1.97;;;1.60;;
13311;SDS011;34033;48.672;9.376;2022-10-17T03:14:23;1.80;;;1.70;;
13311;SDS011;34033;48.672;9.376;2022-10-17T03:16:48;1.80;;;1.70;;
13311;SDS011;34033;48.672;9.376;2022-10-17T03:19:13;1.70;;;1.60;;
13311;SDS011;34033;48.672;9.376;2022-10-17T03:21:39;1.93;;;1.53;;
13311;SDS011;34033;48.672;9.376;2022-10-17T03:24:04;2.00;;;1.80;;
13311;SDS011;34033;48.672;9.376;2022-10-17T03:26:30;1.63;;;1.50;;
13311;SDS011;34033;48.672;9.376;2022-10-17T03:28:55;1.63;;;1.53;;
13311;SDS011;34033;48.672;9.376;2022-10-17T03:31:21;1.80;;;1.70;;
13311;SDS011;34033;48.672;9.376;2022-10-17T03:33:46;4.67;;;2.10;;
13311;SDS011;34033;48.672;9.376;2022-10-17T03:36:13;2.73;;;1.70;;
13311;SDS011;34033;48.672;9.376;2022-10-17T03:38:40;1.97;;;1.77;;
13311;SDS011;34033;48.672;9.376;2022-10-17T03:41:06;2.30;;;2.10;;
13311;SDS011;34033;48.672;9.376;2022-10-17T03:43:33;2.33;;;2.10;;
13311;SDS011;34033;48.672;9.376;2022-10-17T03:45:58;9.77;;;2.40;;
13311;SDS011;34033;48.672;9.376;2022-10-17T03:48:25;2.00;;;1.80;;
13311;SDS011;34033;48.672;9.376;2022-10-17T03:50:56;2.23;;;2.03;;
13311;SDS011;34033;48.672;9.376;2022-10-17T03:53:23;1.97;;;1.80;;
13311;SDS011;34033;48.672;9.376;2022-10-17T03:55:48;5.43;;;1.90;;
13311;SDS011;34033;48.672;9.376;2022-10-17T03:58:13;5.73;;;2.00;;
13311;SDS011;34033;48.672;9.376;2022-10-17T04:00:39;1.73;;;1.63;;
13311;SDS011;34033;48.672;9.376;2022-10-17T04:03:04;4.03;;;1.80;;
13311;SDS011;34033;48.672;9.376;2022-10-17T04:05:30;1.80;;;1.70;;
13311;SDS011;34033;48.672;9.376;2022-10-17T04:07:55;2.00;;;1.80;;
13311;SDS011;34033;48.672;9.376;2022-10-17T04:10:20;4.10;;;1.90;;
13311;SDS011;34033;48.672;9.376;2022-10-17T04:12:46;1.43;;;1.40;;
13311;SDS011;34033;48.672;9.376;2022-10-17T04:15:11;2.00;;;1.90;;
13311;SDS011;34033;48.672;9.376;2022-10-17T04:17:36;1.77;;;1.67;;
13311;SDS011;34033;48.672;9.376;2022-10-17T04:20:02;4.20;;;2.67;;
13311;SDS011;34033;48.672;9.376;2022-10-17T04:22:28;3.90;;;3.50;;
13311;SDS011;34033;48.672;9.376;2022-10-17T04:24:53;4.20;;;3.30;;
13311;SDS011;34033;48.672;9.376;2022-10-17T04:27:18;3.17;;;2.40;;
13311;SDS011;34033;48.672;9.376;2022-10-17T04:29:44;3.77;;;1.90;;
13311;SDS011;34033;48.672;9.376;2022-10-17T04:32:09;2.80;;;2.20;;
13311;SDS011;34033;48.672;9.376;2022-10-17T04:34:34;2.07;;;1.87;;
13311;SDS011;34033;48.672;9.376;2022-10-17T04:37:00;2.67;;;2.20;;
13311;SDS011;34033;48.672;9.376;2022-10-17T04:39:25;2.67;;;2.47;;
13311;SDS011;34033;48.672;9.376;2022-10-17T04:41:51;4.60;;;3.93;;
13311;SDS011;34033;48.672;9.376;2022-10-17T04:44:16;5.13;;;3.97;;
13311;SDS011;34033;48.672;9.376;2022-10-17T04:46:42;2.30;;;2.10;;
13311;SDS011;34033;48.672;9.376;2022-10-17T04:49:07;1.90;;;1.80;;
13311;SDS011;34033;48.672;9.376;2022-10-17T04:51:33;2.67;;;1.93;;
13311;SDS011;34033;48.672;9.376;2022-10-17T04:53:58;1.70;;;1.60;;
13311;SDS011;34033;48.672;9.376;2022-10-17T04:56:24;1.80;;;1.70;;
13311;SDS011;34033;48.672;9.376;2022-10-17T04:58:50;1.90;;;1.77;;
13311;SDS011;34033;48.672;9.376;2022-10-17T05:01:17;2.07;;;1.90;;
13311;SDS011;34033;48.672;9.376;2022-10-17T05:03:44;5.47;;;2.17;;
13311;SDS011;34033;48.672;9.376;2022-10-17T05:06:14;1.87;;;1.77;;
13311;SDS011;34033;48.672;9.376;2022-10-17T05:08:42;2.37;;;2.17;;
13311;SDS011;34033;48.672;9.376;2022-10-17T05:11:22;1.90;;;1.80;;
13311;SDS011;34033;48.672;9.376;2022-10-17T05:13:52;1.90;;;1.80;;
13311;SDS011;34033;48.672;9.376;2022-10-17T05:16:24;2.23;;;1.80;;
13311;SDS011;34033;48.672;9.376;2022-10-17T05:18:51;2.20;;;2.00;;
13311;SDS011;34033;48.672;9.376;2022-10-17T05:21:18;2.47;;;2.27;;
13311;SDS011;34033;48.672;9.376;2022-10-17T05:23:44;3.00;;;1.63;;
13311;SDS011;34033;48.672;9.376;2022-10-17T05:26:10;2.33;;;1.60;;
13311;SDS011;34033;48.672;9.376;2022-10-17T05:28:36;1.63;;;1.53;;
13311;SDS011;34033;48.672;9.376;2022-10-17T05:31:02;1.37;;;1.33;;
13311;SDS011;34033;48.672;9.376;2022-10-17T05:33:32;1.70;;;1.60;;
13311;SDS011;34033;48.672;9.376;2022-10-17T05:35:57;1.70;;;1.60;;
13311;SDS011;34033;48.672;9.376;2022-10-17T05:38:23;2.00;;;1.60;;
13311;SDS011;34033;48.672;9.376;2022-10-17T05:40:49;2.10;;;2.00;;
13311;SDS011;34033;48.672;9.376;2022-10-17T05:43:14;2.27;;;2.00;;
13311;SDS011;34033;48.672;9.376;2022-10-17T05:45:40;1.90;;;1.80;;
13311;SDS011;34033;48.672;9.376;2022-10-17T05:48:05;3.83;;;2.17;;
13311;SDS011;34033;48.672;9.376;2022-10-17T05:50:31;1.97;;;1.80;;
13311;SDS011;34033;48.672;9.376;2022-10-17T05:52:56;1.80;;;1.70;;
13311;SDS011;34033;48.672;9.376;2022-10-17T05:55:22;3.20;;;1.83;;
13311;SDS011;34033;48.672;9.376;2022-10-17T05:57:47;1.73;;;1.63;;
13311;SDS011;34033;48.672;9.376;2022-10-17T06:00:13;3.30;;;1.93;;
13311;SDS011;34033;48.672;9.376;2022-10-17T06:02:38;3.83;;;2.20;;
13311;SDS011;34033;48.672;9.376;2022-10-17T06:05:04;4.57;;;1.80;;
13311;SDS011;34033;48.672;9.376;2022-10-17T06:07:29;3.30;;;2.30;;
13311;SDS011;34033;48.672;9.376;2022-10-17T06:09:55;5.43;;;3.10;;
13311;SDS011;34033;48.672;9.376;2022-10-17T06:12:21;3.93;;;3.00;;
13311;SDS011;34033;48.672;9.376;2022-10-17T06:14:47;5.37;;;3.20;;
13311;SDS011;34033;48.672;9.376;2022-10-17T06:17:12;3.53;;;3.00;;
13311;SDS011;34033;48.672;9.376;2022-10-17T06:19:37;6.03;;;3.00;;
13311;SDS011;34033;48.672;9.376;2022-10-17T06:22:05;3.67;;;2.53;;
13311;SDS011;34033;48.672;9.376;2022-10-17T06:24:30;5.10;;;2.30;;
13311;SDS011;34033;48.672;9.376;2022-10-17T06:26:55;6.63;;;2.80;;
13311;SDS011;34033;48.672;9.376;2022-10-17T06:29:21;7.20;;;2.80;;
13311;SDS011;34033;48.672;9.376;2022-10-17T06:31:47;6.17;;;2.93;;
13311;SDS011;34033;48.672;9.376;2022-10-17T06:34:12;12.57;;;2.90;;
13311;SDS011;34033;48.672;9.376;2022-10-17T06:36:38;5.67;;;2.33;;
13311;SDS011;34033;48.672;9.376;2022-10-17T06:39:03;5.43;;;2.50;;
13311;SDS011;34033;48.672;9.376;2022-10-17T06:41:28;2.83;;;2.60;;
13311;SDS011;34033;48.672;9.376;2022-10-17T06:43:54;4.87;;;2.67;;
13311;SDS011;34033;48.672;9.376;2022-10-17T06:46:19;2.40;;;2.20;;
13311;SDS011;34033;48.672;9.376;2022-10-17T06:48:45;3.87;;;2.07;;
13311;SDS011;34033;48.672;9.376;2022-10-17T06:51:10;2.17;;;2.07;;
13311;SDS011;34033;48.672;9.376;2022-10-17T06:53:37;2.20;;;2.00;;
13311;SDS011;34033;48.672;9.376;2022-10-17T06:56:03;2.33;;;2.13;;
13311;SDS011;34033;48.672;9.376;2022-10-17T06:58:31;2.93;;;2.10;;
13311;SDS011;34033;48.672;9.376;2022-10-17T07:01:03;2.30;;;1.77;;
13311;SDS011;34033;48.672;9.376;2022-10-17T07:03:31;2.63;;;2.20;;
13311;SDS011;34033;48.672;9.376;2022-10-17T07:05:56;2.97;;;1.80;;
13311;SDS011;34033;48.672;9.376;2022-10-17T07:08:22;3.97;;;1.93;;
13311;SDS011;34033;48.672;9.376;2022-10-17T07:10:48;6.10;;;1.97;;
13311;SDS011;34033;48.672;9.376;2022-10-17T07:13:14;2.27;;;1.90;;
13311;SDS011;34033;48.672;9.376;2022-10-17T07:15:40;1.73;;;1.63;;
13311;SDS011;34033;48.672;9.376;2022-10-17T07:18:05;4.23;;;1.90;;
13311;SDS011;34033;48.672;9.376;2022-10-17T07:20:31;1.97;;;1.87;;
13311;SDS011;34033;48.672;9.376;2022-10-17T07:22:57;4.37;;;2.20;;
13311;SDS011;34033;48.672;9.376;2022-10-17T07:25:22;2.70;;;2.10;;
13311;SDS011;34033;48.672;9.376;2022-10-17T07:27:51;3.10;;;2.40;;
13311;SDS011;34033;48.672;9.376;2022-10-17T07:30:17;2.27;;;2.10;;
13311;SDS011;34033;48.672;9.376;2022-10-17T07:32:43;2.97;;;2.10;;
13311;SDS011;34033;48.672;9.376;2022-10-17T07:35:09;3.73;;;2.20;;
13311;SDS011;34033;48.672;9.376;2022-10-17T07:37:35;5.83;;;2.10;;
13311;SDS011;34033;48.672;9.376;2022-10-17T07:40:01;5.77;;;1.90;;
13311;SDS011;34033;48.672;9.376;2022-10-17T07:42:28;3.73;;;1.97;;
13311;SDS011;34033;48.672;9.376;2022-10-17T07:44:53;2.60;;;2.03;;
13311;SDS011;34033;48.672;9.376;2022-10-17T07:47:19;2.40;;;2.20;;
13311;SDS011;34033;48.672;9.376;2022-10-17T07:49:45;3.03;;;1.97;;
13311;SDS011;34033;48.672;9.376;2022-10-17T07:52:13;2.37;;;2.17;;
13311;SDS011;34033;48.672;9.376;2022-10-17T07:54:39;2.70;;;2.50;;
13311;SDS011;34033;48.672;9.376;2022-10-17T07:57:05;2.40;;;2.20;;
13311;SDS011;34033;48.672;9.376;2022-10-17T07:59:34;2.40;;;2.00;;
13311;SDS011;34033;48.672;9.376;2022-10-17T08:02:01;3.43;;;1.97;;
13311;SDS011;34033;48.672;9.376;2022-10-17T08:04:27;2.93;;;1.93;;
13311;SDS011;34033;48.672;9.376;2022-10-17T08:06:52;2.10;;;1.90;;
13311;SDS011;34033;48.672;9.376;2022-10-17T08:09:18;1.63;;;1.53;;
13311;SDS011;34033;48.672;9.376;2022-10-17T08:11:43;1.70;;;1.60;;
13311;SDS011;34033;48.672;9.376;2022-10-17T08:14:09;2.00;;;1.80;;
13311;SDS011;34033;48.672;9.376;2022-10-17T08:16:35;3.23;;;1.73;;
13311;SDS011;34033;48.672;9.376;2022-10-17T08:19:01;3.87;;;1.77;;
13311;SDS011;34033;48.672;9.376;2022-10-17T08:21:27;1.80;;;1.60;;
13311;SDS011;34033;48.672;9.376;2022-10-17T08:23:53;3.17;;;1.80;;
13311;SDS011;34033;48.672;9.376;2022-10-17T08:26:18;2.03;;;1.77;;
13311;SDS011;34033;48.672;9.376;2022-10-17T08:28:44;3.13;;;1.70;;
13311;SDS011;34033;48.672;9.376;2022-10-17T08:31:13;1.73;;;1.63;;
13311;SDS011;34033;48.672;9.376;2022-10-17T08:33:42;1.70;;;1.60;;
13311;SDS011;34033;48.672;9.376;2022-10-17T08:36:08;2.37;;;2.00;;
13311;SDS011;34033;48.672;9.376;2022-10-17T08:38:34;1.90;;;1.80;;
13311;SDS011;34033;48.672;9.376;2022-10-17T08:41:01;1.63;;;1.53;;
13311;SDS011;34033;48.672;9.376;2022-10-17T08:43:33;1.80;;;1.70;;
13311;SDS011;34033;48.672;9.376;2022-10-17T08:46:06;6.30;;;1.60;;
13311;SDS011;34033;48.672;9.376;2022-10-17T08:48:37;1.97;;;1.87;;
13311;SDS011;34033;48.672;9.376;2022-10-17T08:51:18;1.90;;;1.70;;
13311;SDS011;34033;48.672;9.376;2022-10-17T08:53:55;4.03;;;1.73;;
13311;SDS011;34033;48.672;9.376;2022-10-17T08:56:43;3.00;;;1.77;;
13311;SDS011;34033;48.672;9.376;2022-10-17T08:59:10;3.13;;;1.63;;
13311;SDS011;34033;48.672;9.376;2022-10-17T09:06:49;1.87;;;1.77;;
13311;SDS011;34033;48.672;9.376;2022-10-17T09:20:43;1.90;;;1.73;;
13311;SDS011;34033;48.672;9.376;2022-10-17T09:23:15;1.70;;;1.60;;
13311;SDS011;34033;48.672;9.376;2022-10-17T09:25:44;4.53;;;1.43;;
13311;SDS011;34033;48.672;9.376;2022-10-17T09:28:18;1.50;;;1.40;;
13311;SDS011;34033;48.672;9.376;2022-10-17T09:33:28;3.20;;;1.73;;
13311;SDS011;34033;48.672;9.376;2022-10-17T09:35:58;3.80;;;1.47;;
13311;SDS011;34033;48.672;9.376;2022-10-17T09:38:28;1.70;;;1.60;;
13311;SDS011;34033;48.672;9.376;2022-10-17T09:41:00;1.63;;;1.40;;
13311;SDS011;34033;48.672;9.376;2022-10-17T09:43:26;1.70;;;1.60;;
13311;SDS011;34033;48.672;9.376;2022-10-17T09:46:07;1.53;;;1.37;;
13311;SDS011;34033;48.672;9.376;2022-10-17T09:51:36;1.40;;;1.30;;
13311;SDS011;34033;48.672;9.376;2022-10-17T09:54:03;1.30;;;1.30;;
13311;SDS011;34033;48.672;9.376;2022-10-17T09:59:34;1.40;;;1.30;;
13311;SDS011;34033;48.672;9.376;2022-10-17T10:02:18;2.27;;;1.50;;
13311;SDS011;34033;48.672;9.376;2022-10-17T10:07:29;1.10;;;1.00;;
13311;SDS011;34033;48.672;9.376;2022-10-17T10:09:57;1.23;;;1.17;;
13311;SDS011;34033;48.672;9.376;2022-10-17T10:12:25;1.20;;;1.20;;
13311;SDS011;34033;48.672;9.376;2022-10-17T10:14:54;1.10;;;1.10;;
13311;SDS011;34033;48.672;9.376;2022-10-17T10:19:53;1.83;;;1.43;;
13311;SDS011;34033;48.672;9.376;2022-10-17T10:22:19;1.17;;;1.10;;
13311;SDS011;34033;48.672;9.376;2022-10-17T10:27:34;4.27;;;1.60;;
13311;SDS011;34033;48.672;9.376;2022-10-17T10:30:01;1.10;;;1.10;;
13311;SDS011;34033;48.672;9.376;2022-10-17T10:32:27;1.57;;;1.37;;
13311;SDS011;34033;48.672;9.376;2022-10-17T10:37:44;4.10;;;1.50;;
13311;SDS011;34033;48.672;9.376;2022-10-17T10:42:54;1.30;;;1.20;;
13311;SDS011;34033;48.672;9.376;2022-10-17T10:45:22;2.10;;;1.30;;
13311;SDS011;34033;48.672;9.376;2022-10-17T10:47:54;1.40;;;1.30;;
13311;SDS011;34033;48.672;9.376;2022-10-17T10:53:22;1.40;;;1.30;;
13311;SDS011;34033;48.672;9.376;2022-10-17T10:55:53;4.33;;;1.30;;
13311;SDS011;34033;48.672;9.376;2022-10-17T11:01:15;2.17;;;1.40;;
13311;SDS011;34033;48.672;9.376;2022-10-17T11:03:57;2.57;;;1.20;;
13311;SDS011;34033;48.672;9.376;2022-10-17T11:06:33;1.47;;;1.37;;
13311;SDS011;34033;48.672;9.376;2022-10-17T11:11:40;1.63;;;1.23;;
13311;SDS011;34033;48.672;9.376;2022-10-17T11:16:46;3.13;;;1.57;;
13311;SDS011;34033;48.672;9.376;2022-10-17T11:19:23;1.33;;;1.23;;
13311;SDS011;34033;48.672;9.376;2022-10-17T11:27:04;2.87;;;1.47;;
13311;SDS011;34033;48.672;9.376;2022-10-17T11:29:31;1.53;;;1.40;;
13311;SDS011;34033;48.672;9.376;2022-10-17T11:32:07;3.37;;;1.40;;
13311;SDS011;34033;48.672;9.376;2022-10-17T11:34:42;3.53;;;1.60;;
13311;SDS011;34033;48.672;9.376;2022-10-17T11:37:14;2.67;;;1.20;;
13311;SDS011;34033;48.672;9.376;2022-10-17T11:39:53;2.57;;;1.53;;
13311;SDS011;34033;48.672;9.376;2022-10-17T11:42:29;2.00;;;1.33;;
13311;SDS011;34033;48.672;9.376;2022-10-17T11:45:02;3.23;;;1.30;;
13311;SDS011;34033;48.672;9.376;2022-10-17T11:47:36;2.63;;;1.27;;
13311;SDS011;34033;48.672;9.376;2022-10-17T11:50:15;1.30;;;1.20;;
13311;SDS011;34033;48.672;9.376;2022-10-17T11:53:23;3.70;;;1.30;;
13311;SDS011;34033;48.672;9.376;2022-10-17T11:55:48;1.50;;;1.30;;
13311;SDS011;34033;48.672;9.376;2022-10-17T11:58:36;2.23;;;1.30;;
13311;SDS011;34033;48.672;9.376;2022-10-17T12:02:14;1.10;;;1.10;;
13311;SDS011;34033;48.672;9.376;2022-10-17T12:12:33;1.40;;;1.37;;
13311;SDS011;34033;48.672;9.376;2022-10-17T12:17:37;1.40;;;1.30;;
13311;SDS011;34033;48.672;9.376;2022-10-17T12:22:48;1.60;;;1.50;;
13311;SDS011;34033;48.672;9.376;2022-10-17T12:25:19;2.50;;;1.90;;
13311;SDS011;34033;48.672;9.376;2022-10-17T12:27:47;1.63;;;1.43;;
13311;SDS011;34033;48.672;9.376;2022-10-17T12:32:52;1.10;;;1.10;;
13311;SDS011;34033;48.672;9.376;2022-10-17T12:35:18;2.27;;;1.20;;
13311;SDS011;34033;48.672;9.376;2022-10-17T12:45:44;2.20;;;0.87;;
13311;SDS011;34033;48.672;9.376;2022-10-17T12:56:13;1.17;;;1.10;;
13311;SDS011;34033;48.672;9.376;2022-10-17T12:58:47;3.20;;;1.00;;
13311;SDS011;34033;48.672;9.376;2022-10-17T13:01:16;2.23;;;1.30;;
13311;SDS011;34033;48.672;9.376;2022-10-17T13:03:46;3.70;;;1.13;;
13311;SDS011;34033;48.672;9.376;2022-10-17T13:06:18;0.80;;;0.80;;
13311;SDS011;34033;48.672;9.376;2022-10-17T13:08:46;0.93;;;0.93;;
13311;SDS011;34033;48.672;9.376;2022-10-17T13:11:20;2.23;;;1.10;;
13311;SDS011;34033;48.672;9.376;2022-10-17T13:13:49;1.83;;;1.30;;
13311;SDS011;34033;48.672;9.376;2022-10-17T13:16:27;0.97;;;0.97;;
13311;SDS011;34033;48.672;9.376;2022-10-17T13:18:54;1.00;;;0.93;;
13311;SDS011;34033;48.672;9.376;2022-10-17T13:21:19;1.43;;;0.90;;
13311;SDS011;34033;48.672;9.376;2022-10-17T13:23:45;1.50;;;1.10;;
13311;SDS011;34033;48.672;9.376;2022-10-17T13:26:17;2.33;;;1.27;;
13311;SDS011;34033;48.672;9.376;2022-10-17T13:28:44;1.73;;;1.30;;
13311;SDS011;34033;48.672;9.376;2022-10-17T13:34:18;0.90;;;0.90;;
13311;SDS011;34033;48.672;9.376;2022-10-17T13:36:52;1.00;;;1.00;;
13311;SDS011;34033;48.672;9.376;2022-10-17T13:39:21;2.13;;;1.00;;
13311;SDS011;34033;48.672;9.376;2022-10-17T13:41:50;1.43;;;0.97;;
13311;SDS011;34033;48.672;9.376;2022-10-17T13:44:21;0.80;;;0.80;;
13311;SDS011;34033;48.672;9.376;2022-10-17T13:46:49;0.87;;;0.87;;
13311;SDS011;34033;48.672;9.376;2022-10-17T13:49:22;1.70;;;1.10;;
13311;SDS011;34033;48.672;9.376;2022-10-17T13:51:54;1.73;;;1.40;;
13311;SDS011;34033;48.672;9.376;2022-10-17T13:56:58;0.90;;;0.90;;
13311;SDS011;34033;48.672;9.376;2022-10-17T13:59:30;1.00;;;1.00;;
13311;SDS011;34033;48.672;9.376;2022-10-17T14:02:01;1.20;;;1.10;;
13311;SDS011;34033;48.672;9.376;2022-10-17T14:04:27;0.60;;;0.60;;
13311;SDS011;34033;48.672;9.376;2022-10-17T14:06:52;1.43;;;1.00;;
13311;SDS011;34033;48.672;9.376;2022-10-17T14:12:01;3.33;;;1.20;;
13311;SDS011;34033;48.672;9.376;2022-10-17T14:14:37;1.00;;;1.00;;
13311;SDS011;34033;48.672;9.376;2022-10-17T14:17:13;1.70;;;1.27;;
13311;SDS011;34033;48.672;9.376;2022-10-17T14:19:39;1.23;;;1.13;;
13311;SDS011;34033;48.672;9.376;2022-10-17T14:22:24;1.37;;;1.20;;
13311;SDS011;34033;48.672;9.376;2022-10-17T14:24:52;1.20;;;1.10;;
13311;SDS011;34033;48.672;9.376;2022-10-17T14:29:53;1.90;;;0.90;;
13311;SDS011;34033;48.672;9.376;2022-10-17T14:32:20;1.40;;;1.10;;
13311;SDS011;34033;48.672;9.376;2022-10-17T14:34:50;1.40;;;1.30;;
13311;SDS011;34033;48.672;9.376;2022-10-17T14:39:57;1.47;;;1.37;;
13311;SDS011;34033;48.672;9.376;2022-10-17T14:42:23;3.43;;;1.13;;
13311;SDS011;34033;48.672;9.376;2022-10-17T14:44:50;3.53;;;1.40;;
13311;SDS011;34033;48.672;9.376;2022-10-17T14:47:20;1.83;;;1.30;;
13311;SDS011;34033;48.672;9.376;2022-10-17T14:50:00;3.23;;;1.70;;
13311;SDS011;34033;48.672;9.376;2022-10-17T14:52:32;1.10;;;1.10;;
13311;SDS011;34033;48.672;9.376;2022-10-17T14:54:59;1.93;;;1.10;;
13311;SDS011;34033;48.672;9.376;2022-10-17T14:57:43;2.23;;;1.20;;
13311;SDS011;34033;48.672;9.376;2022-10-17T15:00:13;1.63;;;1.53;;
13311;SDS011;34033;48.672;9.376;2022-10-17T15:02:40;1.50;;;1.40;;
13311;SDS011;34033;48.672;9.376;2022-10-17T15:05:06;1.40;;;1.40;;
13311;SDS011;34033;48.672;9.376;2022-10-17T15:07:31;1.30;;;1.30;;
13311;SDS011;34033;48.672;9.376;2022-10-17T15:09:57;1.67;;;1.37;;
13311;SDS011;34033;48.672;9.376;2022-10-17T15:12:22;3.60;;;1.60;;
13311;SDS011;34033;48.672;9.376;2022-10-17T15:14:49;1.63;;;1.53;;
13311;SDS011;34033;48.672;9.376;2022-10-17T15:17:29;4.33;;;1.83;;
13311;SDS011;34033;48.672;9.376;2022-10-17T15:19:55;1.87;;;1.77;;
13311;SDS011;34033;48.672;9.376;2022-10-17T15:22:21;2.27;;;1.77;;
13311;SDS011;34033;48.672;9.376;2022-10-17T15:24:48;17.03;;;1.90;;
13311;SDS011;34033;48.672;9.376;2022-10-17T15:27:15;3.10;;;1.93;;
13311;SDS011;34033;48.672;9.376;2022-10-17T15:29:42;4.97;;;1.67;;
13311;SDS011;34033;48.672;9.376;2022-10-17T15:32:07;2.17;;;2.07;;
13311;SDS011;34033;48.672;9.376;2022-10-17T15:34:33;2.53;;;2.10;;
13311;SDS011;34033;48.672;9.376;2022-10-17T15:36:58;2.20;;;2.00;;
13311;SDS011;34033;48.672;9.376;2022-10-17T15:39:24;3.67;;;2.70;;
13311;SDS011;34033;48.672;9.376;2022-10-17T15:41:49;4.53;;;2.30;;
13311;SDS011;34033;48.672;9.376;2022-10-17T15:44:15;3.27;;;1.80;;
13311;SDS011;34033;48.672;9.376;2022-10-17T15:46:40;2.00;;;1.80;;
13311;SDS011;34033;48.672;9.376;2022-10-17T15:49:10;5.10;;;1.60;;
13311;SDS011;34033;48.672;9.376;2022-10-17T15:51:38;2.20;;;1.73;;
13311;SDS011;34033;48.672;9.376;2022-10-17T15:54:03;1.87;;;1.77;;
13311;SDS011;34033;48.672;9.376;2022-10-17T15:56:30;2.80;;;1.50;;
13311;SDS011;34033;48.672;9.376;2022-10-17T15:59:01;3.37;;;1.70;;
13311;SDS011;34033;48.672;9.376;2022-10-17T16:01:28;3.53;;;1.37;;
13311;SDS011;34033;48.672;9.376;2022-10-17T16:03:55;2.00;;;1.60;;
13311;SDS011;34033;48.672;9.376;2022-10-17T16:06:22;2.07;;;1.50;;
13311;SDS011;34033;48.672;9.376;2022-10-17T16:08:48;3.47;;;1.50;;
13311;SDS011;34033;48.672;9.376;2022-10-17T16:13:55;2.80;;;1.53;;
13311;SDS011;34033;48.672;9.376;2022-10-17T16:16:22;2.13;;;1.60;;
13311;SDS011;34033;48.672;9.376;2022-10-17T16:18:48;2.83;;;1.53;;
13311;SDS011;34033;48.672;9.376;2022-10-17T16:21:14;3.87;;;1.70;;
13311;SDS011;34033;48.672;9.376;2022-10-17T16:23:40;1.93;;;1.77;;
13311;SDS011;34033;48.672;9.376;2022-10-17T16:26:06;3.30;;;1.90;;
13311;SDS011;34033;48.672;9.376;2022-10-17T16:28:32;2.67;;;1.80;;
13311;SDS011;34033;48.672;9.376;2022-10-17T16:30:58;1.83;;;1.73;;
13311;SDS011;34033;48.672;9.376;2022-10-17T16:33:23;2.80;;;2.10;;
13311;SDS011;34033;48.672;9.376;2022-10-17T16:35:49;2.37;;;1.97;;
13311;SDS011;34033;48.672;9.376;2022-10-17T16:38:14;2.33;;;2.10;;
13311;SDS011;34033;48.672;9.376;2022-10-17T16:40:40;2.30;;;1.90;;
13311;SDS011;34033;48.672;9.376;2022-10-17T16:43:05;3.23;;;2.13;;
13311;SDS011;34033;48.672;9.376;2022-10-17T16:45:31;1.80;;;1.70;;
13311;SDS011;34033;48.672;9.376;2022-10-17T16:47:57;1.83;;;1.73;;
13311;SDS011;34033;48.672;9.376;2022-10-17T16:50:22;2.23;;;1.97;;
13311;SDS011;34033;48.672;9.376;2022-10-17T16:52:48;1.93;;;1.83;;
13311;SDS011;34033;48.672;9.376;2022-10-17T16:55:14;2.17;;;1.80;;
13311;SDS011;34033;48.672;9.376;2022-10-17T16:57:42;3.73;;;2.70;;
13311;SDS011;34033;48.672;9.376;2022-10-17T17:00:08;5.00;;;2.77;;
13311;SDS011;34033;48.672;9.376;2022-10-17T17:02:36;7.17;;;3.10;;
13311;SDS011;34033;48.672;9.376;2022-10-17T17:05:02;2.97;;;2.77;;
13311;SDS011;34033;48.672;9.376;2022-10-17T17:07:28;4.07;;;3.20;;
13311;SDS011;34033;48.672;9.376;2022-10-17T17:09:53;3.93;;;3.30;;
13311;SDS011;34033;48.672;9.376;2022-10-17T17:12:20;4.17;;;3.20;;
13311;SDS011;34033;48.672;9.376;2022-10-17T17:14:45;6.77;;;3.00;;